Time;durP1;ratioP1;P1;durP2;ratioP2;P2;SDS_P1;SDS_P2;PMS_P1;PMS_P2;Temp;Humidity;BMP_temperature;BMP_pressure;BME280_temperature;BME280_humidity;BME280_pressure;Samples;Min_cycle;Max_cycle;Signal;HPM_P1;HPM_P2
2022/05/06 00:00:14;;;;;;;0.60;0.60;;;;;;;3.65;40.31;100301.03;4918347;29;20138;-83
2022/05/06 00:02:41;;;;;;;0.50;0.50;;;;;;;3.71;40.17;100305.69;4935202;29;20055;-83
2022/05/06 00:05:11;;;;;;;0.70;0.70;;;;;;;3.67;40.44;100299.00;4918350;29;20047;-82
2022/05/06 00:07:38;;;;;;;0.60;0.60;;;;;;;3.64;40.67;100294.00;4934462;29;20095;-83
2022/05/06 00:10:06;;;;;;;0.50;0.50;;;;;;;3.64;40.46;100299.34;4934954;29;20047;-83
2022/05/06 00:12:33;;;;;;;0.50;0.50;;;;;;;3.67;40.32;100299.00;4935075;29;20118;-84
2022/05/06 00:15:01;;;;;;;0.50;0.50;;;;;;;3.65;40.29;100312.53;4934991;29;20114;-83
2022/05/06 00:17:33;;;;;;;0.70;0.70;;;;;;;3.62;40.52;100307.53;4918570;29;20047;-83
2022/05/06 00:20:01;;;;;;;0.60;0.60;;;;;;;3.59;40.39;100309.69;4935683;29;20467;-80
2022/05/06 00:22:28;;;;;;;0.60;0.60;;;;;;;3.54;40.44;100294.16;4934858;29;20071;-83
2022/05/06 00:24:56;;;;;;;0.50;0.50;;;;;;;3.55;40.66;100305.72;4917852;29;20044;-81
2022/05/06 00:27:23;;;;;;;0.70;0.70;;;;;;;3.51;40.70;100305.19;4934594;29;20154;-83
2022/05/06 00:29:50;;;;;;;0.60;0.60;;;;;;;3.46;40.82;100310.19;4934757;29;20127;-81
2022/05/06 00:32:18;;;;;;;0.65;0.65;;;;;;;3.52;40.74;100316.69;4934356;29;20055;-82
2022/05/06 00:34:45;;;;;;;0.70;0.70;;;;;;;3.51;40.90;100310.53;4917684;29;20098;-81
2022/05/06 00:37:12;;;;;;;0.70;0.70;;;;;;;3.47;40.74;100307.38;4934682;29;20071;-82
2022/05/06 00:39:40;;;;;;;0.68;0.68;;;;;;;3.46;41.13;100308.34;4936047;29;20048;-83
2022/05/06 00:42:07;;;;;;;0.63;0.63;;;;;;;3.49;41.07;100312.53;4903441;29;20126;-82
2022/05/06 00:44:34;;;;;;;0.60;0.60;;;;;;;3.52;41.07;100316.69;4902038;29;20071;-82
2022/05/06 00:47:01;;;;;;;0.50;0.50;;;;;;;3.53;41.10;100313.88;4934908;29;20048;-83
2022/05/06 00:49:29;;;;;;;0.60;0.60;;;;;;;3.55;41.12;100311.06;4917870;29;20051;-81
2022/05/06 00:51:56;;;;;;;0.70;0.70;;;;;;;3.57;41.11;100311.69;4935481;29;20467;-83
2022/05/06 00:54:24;;;;;;;0.55;0.55;;;;;;;3.53;41.06;100313.03;4935166;29;20054;-82
2022/05/06 00:56:52;;;;;;;0.70;0.70;;;;;;;3.50;41.32;100308.03;4934242;29;20057;-83
2022/05/06 00:59:19;;;;;;;0.60;0.60;;;;;;;3.46;41.23;100310.19;4917287;29;20055;-83
2022/05/06 01:01:47;;;;;;;0.60;0.60;;;;;;;3.40;41.48;100297.53;4917328;29;20118;-82
2022/05/06 01:04:19;;;;;;;0.60;0.60;;;;;;;3.35;41.63;100302.53;4917096;29;20101;-83
2022/05/06 01:06:47;;;;;;;0.70;0.70;;;;;;;3.45;41.55;100311.22;4934153;29;20059;-82
2022/05/06 01:09:17;;;;;;;0.68;0.68;;;;;;;3.41;41.78;100316.03;4917094;29;20126;-82
2022/05/06 01:11:47;;;;;;;0.60;0.60;;;;;;;3.38;41.56;100305.69;4934239;29;20055;-83
2022/05/06 01:14:33;;;;;;;0.73;0.73;;;;;;;3.39;41.57;100306.53;4916954;29;20547;-82
2022/05/06 01:17:29;;;;;;;0.40;0.40;;;;;;;3.43;41.66;100308.69;4859249;29;20493;-83
2022/05/06 01:19:56;;;;;;;0.70;0.70;;;;;;;3.44;41.87;100318.38;4875198;29;20069;-82
2022/05/06 01:22:26;;;;;;;0.70;0.70;;;;;;;3.42;42.06;100309.72;4875374;29;20079;-83
2022/05/06 01:24:53;;;;;;;0.60;0.60;;;;;;;3.47;41.70;100311.88;4875175;29;20055;-81
2022/05/06 01:27:23;;;;;;;0.60;0.60;;;;;;;3.43;41.85;100306.03;4858934;29;20057;-81
2022/05/06 01:29:51;;;;;;;0.60;0.60;;;;;;;3.43;41.87;100298.03;4875344;29;20068;-82
2022/05/06 01:32:22;;;;;;;0.60;0.60;;;;;;;3.54;41.66;100314.69;4874702;29;20127;-82
2022/05/06 01:34:50;;;;;;;0.70;0.70;;;;;;;3.56;41.68;100313.53;4875074;29;20548;-83
2022/05/06 01:37:18;;;;;;;0.70;0.70;;;;;;;3.58;41.75;100311.53;4859318;29;20084;-83
2022/05/06 01:39:51;;;;;;;0.60;0.60;;;;;;;3.60;41.74;100314.06;4874907;29;20147;-82
2022/05/06 01:42:21;;;;;;;0.65;0.65;;;;;;;3.57;41.95;100317.88;4859118;29;20045;-83
2022/05/06 01:44:59;;;;;;;0.70;0.70;;;;;;;3.61;41.83;100321.03;4860927;29;20152;-83
2022/05/06 01:47:29;;;;;;;0.60;0.60;;;;;;;3.57;41.96;100317.88;4874374;29;20148;-82
2022/05/06 01:50:03;;;;;;;0.63;0.63;;;;;;;3.54;41.98;100326.22;4874780;29;20057;-82
2022/05/06 01:52:35;;;;;;;0.60;0.60;;;;;;;3.48;42.37;100325.03;4859102;29;20101;-82
2022/05/06 01:55:05;;;;;;;0.47;0.47;;;;;;;3.52;42.40;100330.91;4913616;29;20111;-82
2022/05/06 01:57:43;;;;;;;0.60;0.60;;;;;;;3.53;42.49;100335.22;4916407;29;20071;-83
2022/05/06 02:00:15;;;;;;;0.63;0.63;;;;;;;3.55;42.39;100337.75;4916429;29;20048;-82
2022/05/06 02:02:45;;;;;;;0.60;0.60;;;;;;;3.59;42.43;100333.72;4916493;29;20047;-83
2022/05/06 02:05:23;;;;;;;0.70;0.70;;;;;;;3.58;42.38;100313.38;4916092;29;20070;-82
2022/05/06 02:07:54;;;;;;;0.60;0.60;;;;;;;3.59;42.22;100323.03;4916637;29;20095;-82
2022/05/06 02:10:23;;;;;;;0.50;0.50;;;;;;;3.61;42.49;100331.72;4916299;29;20044;-83
2022/05/06 02:12:57;;;;;;;0.60;0.60;;;;;;;3.59;42.46;100320.38;4902440;29;20043;-84
2022/05/06 02:15:38;;;;;;;0.70;0.70;;;;;;;3.61;42.46;100327.22;4918665;29;20156;-81
2022/05/06 02:18:17;;;;;;;0.65;0.65;;;;;;;3.61;42.59;100331.72;4916465;29;20071;-82
2022/05/06 02:21:03;;;;;;;0.60;0.60;;;;;;;3.57;42.54;100327.72;4919242;29;20066;-81
2022/05/06 02:23:43;;;;;;;0.60;0.60;;;;;;;3.57;42.72;100325.03;4933459;29;20055;-82
2022/05/06 02:26:29;;;;;;;0.65;0.65;;;;;;;3.55;42.96;100332.41;4933455;29;20052;-82
2022/05/06 02:29:01;;;;;;;0.75;0.75;;;;;;;3.59;42.94;100333.72;4917174;29;20410;-82
2022/05/06 02:34:18;;;;;;;0.70;0.70;;;;;;;3.55;43.13;100335.06;4936697;29;20047;-84
2022/05/06 02:36:52;;;;;;;0.70;0.70;;;;;;;3.51;43.13;100333.72;4919870;29;20417;-82
2022/05/06 02:39:19;;;;;;;0.65;0.65;;;;;;;3.48;43.25;100338.38;4936800;29;20528;-83
2022/05/06 02:41:53;;;;;;;0.60;0.60;;;;;;;3.48;43.24;100337.56;4919858;29;20051;-83
2022/05/06 02:44:23;;;;;;;0.60;0.60;;;;;;;3.54;43.12;100346.72;4919323;29;20787;-83
2022/05/06 02:46:52;;;;;;;0.70;0.70;;;;;;;3.62;43.25;100352.06;4919539;29;20054;-83
2022/05/06 02:49:19;;;;;;;0.60;0.60;;;;;;;3.59;43.23;100339.06;4919352;29;20044;-82
2022/05/06 02:51:46;;;;;;;0.70;0.70;;;;;;;3.71;43.18;100352.91;4919254;29;20580;-82
2022/05/06 02:54:21;;;;;;;0.70;0.70;;;;;;;3.78;42.97;100362.75;4919084;29;20134;-83
2022/05/06 02:56:52;;;;;;;0.60;0.60;;;;;;;3.86;42.86;100356.59;4890215;29;20566;-83
2022/05/06 02:59:19;;;;;;;0.60;0.60;;;;;;;3.88;42.73;100344.72;4935990;29;20463;-83
2022/05/06 03:01:47;;;;;;;0.70;0.70;;;;;;;4.05;42.65;100358.91;4903519;29;20455;-83
2022/05/06 03:04:16;;;;;;;0.70;0.70;;;;;;;4.15;42.30;100357.88;4919491;29;20048;-83
2022/05/06 03:06:46;;;;;;;0.60;0.60;;;;;;;4.31;42.29;100355.19;4940916;29;20099;-83
2022/05/06 03:09:27;;;;;;;0.70;0.70;;;;;;;4.40;41.91;100353.31;4924336;29;20051;-83
2022/05/06 03:11:59;;;;;;;0.70;0.70;;;;;;;4.57;41.63;100355.75;4940968;29;20570;-84
2022/05/06 03:14:27;;;;;;;0.70;0.70;;;;;;;4.83;41.32;100365.34;4919075;29;20047;-82
2022/05/06 03:17:14;;;;;;;0.60;0.60;;;;;;;5.05;40.83;100373.63;4905450;29;20044;-82
2022/05/06 03:19:42;;;;;;;0.70;0.70;;;;;;;5.29;40.80;100369.97;4915504;29;20135;-82
2022/05/06 03:22:09;;;;;;;0.70;0.70;;;;;;;5.48;40.17;100366.84;4916687;29;20059;-82
2022/05/06 03:24:36;;;;;;;0.60;0.60;;;;;;;5.75;40.08;100372.69;4900129;29;20059;-83
2022/05/06 03:27:04;;;;;;;0.60;0.60;;;;;;;5.92;39.51;100381.41;4916860;29;20579;-82
2022/05/06 03:29:31;;;;;;;0.70;0.70;;;;;;;5.99;39.07;100374.34;4900144;29;20475;-83
2022/05/06 03:31:59;;;;;;;0.60;0.60;;;;;;;6.04;39.00;100370.09;4900560;29;20400;-83
2022/05/06 03:34:30;;;;;;;0.70;0.70;;;;;;;6.24;38.91;100375.78;4915382;29;20052;-84
2022/05/06 03:36:57;;;;;;;0.70;0.70;;;;;;;6.34;38.77;100369.31;4900216;29;20246;-83
2022/05/06 03:39:28;;;;;;;0.70;0.70;;;;;;;6.38;38.86;100370.59;4916030;29;20051;-82
2022/05/06 03:42:03;;;;;;;0.70;0.70;;;;;;;6.25;38.82;100380.13;4915586;29;20060;-83
2022/05/06 03:44:31;;;;;;;0.60;0.60;;;;;;;6.16;38.93;100381.22;4899820;29;20059;-83
2022/05/06 03:46:58;;;;;;;0.60;0.60;;;;;;;6.00;39.33;100379.53;4915195;29;20059;-83
2022/05/06 03:49:33;;;;;;;0.70;0.70;;;;;;;6.05;39.69;100389.69;4915142;29;20052;-83
2022/05/06 03:52:01;;;;;;;0.65;0.65;;;;;;;5.97;39.63;100376.38;4915125;29;20123;-83
2022/05/06 03:54:30;;;;;;;0.68;0.68;;;;;;;6.11;39.47;100386.28;4884338;29;20056;-84
2022/05/06 03:56:58;;;;;;;0.70;0.70;;;;;;;6.06;39.47;100378.78;4914985;29;20067;-83
2022/05/06 03:59:25;;;;;;;0.65;0.65;;;;;;;6.10;39.70;100368.53;4915482;29;20059;-83
2022/05/06 04:02:02;;;;;;;0.63;0.63;;;;;;;6.10;39.66;100362.34;4915063;29;20687;-84
2022/05/06 04:04:32;;;;;;;0.50;0.50;;;;;;;6.28;39.45;100395.84;4883670;29;20123;-84
2022/05/06 04:07:03;;;;;;;0.40;0.40;;;;;;;6.31;39.74;100391.97;4915379;29;20048;-84
2022/05/06 04:09:38;;;;;;;0.50;0.50;;;;;;;6.40;39.71;100398.91;4914932;29;20056;-84
2022/05/06 04:12:05;;;;;;;0.60;0.60;;;;;;;6.43;39.04;100393.19;4915203;29;20048;-84
2022/05/06 04:14:37;;;;;;;0.60;0.60;;;;;;;6.48;39.21;100382.75;4914762;29;20052;-84
2022/05/06 04:17:04;;;;;;;0.70;0.70;;;;;;;6.55;39.31;100387.38;4914601;29;20056;-84
2022/05/06 04:19:33;;;;;;;0.60;0.60;;;;;;;6.58;38.75;100381.63;4899067;29;20060;-84
2022/05/06 04:25:00;;;;;;;0.70;0.70;;;;;;;6.72;39.14;100387.00;4914312;29;20055;-83
2022/05/06 04:27:31;;;;;;;0.60;0.60;;;;;;;6.87;39.00;100386.97;4914284;29;20052;-83
2022/05/06 04:29:59;;;;;;;0.60;0.60;;;;;;;6.91;38.48;100382.06;4914264;29;20048;-84
2022/05/06 04:32:38;;;;;;;0.60;0.60;;;;;;;6.98;38.04;100382.97;4914236;29;20080;-83
2022/05/06 04:35:10;;;;;;;0.60;0.60;;;;;;;6.93;37.81;100383.53;4914681;29;20066;-83
2022/05/06 04:37:37;;;;;;;0.50;0.50;;;;;;;7.07;37.85;100391.78;4915668;29;20051;-84
2022/05/06 04:40:05;;;;;;;0.60;0.60;;;;;;;7.16;37.79;100391.50;4914171;29;20084;-84
2022/05/06 04:42:33;;;;;;;0.70;0.70;;;;;;;7.29;37.46;100385.44;4867737;29;20052;-82
2022/05/06 04:45:04;;;;;;;0.70;0.70;;;;;;;7.46;37.42;100390.56;4915109;29;20051;-83
2022/05/06 04:47:34;;;;;;;0.50;0.50;;;;;;;7.51;37.30;100388.97;4916444;29;20051;-84
2022/05/06 04:50:05;;;;;;;0.68;0.68;;;;;;;7.50;36.95;100386.50;4885746;29;20052;-84
2022/05/06 04:52:32;;;;;;;0.60;0.60;;;;;;;7.72;37.02;100390.84;4898292;29;20072;-84
2022/05/06 04:54:59;;;;;;;0.70;0.70;;;;;;;7.76;36.82;100384.03;4914339;29;20144;-84
2022/05/06 04:57:29;;;;;;;0.70;0.70;;;;;;;7.82;36.86;100396.72;4913795;29;20063;-84
2022/05/06 04:59:56;;;;;;;0.70;0.70;;;;;;;7.93;36.80;100391.88;4898515;29;20048;-84
2022/05/06 05:02:26;;;;;;;0.60;0.60;;;;;;;7.94;36.37;100394.34;4915496;29;20496;-84
2022/05/06 05:04:58;;;;;;;0.65;0.65;;;;;;;7.92;36.72;100399.06;4899238;29;20055;-83
2022/05/06 05:07:30;;;;;;;0.68;0.68;;;;;;;8.01;36.42;100391.72;4913615;29;20104;-83
2022/05/06 05:09:58;;;;;;;0.70;0.70;;;;;;;8.13;36.40;100395.56;4913296;29;20650;-83
2022/05/06 05:12:30;;;;;;;0.70;0.70;;;;;;;8.28;36.46;100399.97;4913669;29;20051;-83
2022/05/06 05:14:58;;;;;;;0.60;0.60;;;;;;;8.44;36.18;100391.66;4913359;29;20071;-83
2022/05/06 05:17:31;;;;;;;0.65;0.65;;;;;;;8.57;35.33;100399.81;4913946;29;20048;-84
2022/05/06 05:20:00;;;;;;;0.70;0.70;;;;;;;8.72;35.49;100399.69;4916606;29;20058;-84
2022/05/06 05:22:35;;;;;;;0.70;0.70;;;;;;;8.73;35.59;100387.06;4916870;29;20082;-85
2022/05/06 05:25:06;;;;;;;0.60;0.60;;;;;;;8.89;35.10;100397.53;4916525;29;20127;-84
2022/05/06 05:27:38;;;;;;;0.60;0.60;;;;;;;9.08;34.74;100401.31;4900834;29;20079;-83
2022/05/06 05:30:10;;;;;;;0.60;0.60;;;;;;;9.09;34.55;100390.38;4916146;29;20094;-83
2022/05/06 05:32:39;;;;;;;0.60;0.60;;;;;;;9.42;34.58;100403.13;4916713;29;20055;-84
2022/05/06 05:35:11;;;;;;;0.60;0.60;;;;;;;9.54;34.55;100409.59;4915995;29;20074;-83
2022/05/06 05:37:45;;;;;;;0.60;0.60;;;;;;;9.39;34.16;100402.69;4900328;29;20055;-83
2022/05/06 05:40:13;;;;;;;0.60;0.60;;;;;;;9.35;34.02;100407.66;4885537;29;20051;-84
2022/05/06 05:42:44;;;;;;;0.60;0.60;;;;;;;9.33;34.07;100404.31;4909150;29;20060;-84
2022/05/06 05:48:20;;;;;;;0.63;0.63;;;;;;;9.28;34.61;100380.69;4906708;29;20095;-84
2022/05/06 05:51:09;;;;;;;0.60;0.60;;;;;;;9.58;33.83;100403.78;4936493;29;20148;-83
2022/05/06 05:53:44;;;;;;;0.60;0.60;;;;;;;9.70;33.49;100410.25;4921352;29;20138;-84
2022/05/06 05:56:13;;;;;;;0.60;0.60;;;;;;;9.77;33.67;100395.75;4908017;29;20056;-84
2022/05/06 05:58:40;;;;;;;0.70;0.70;;;;;;;9.94;33.44;100401.53;4875455;29;20086;-83
2022/05/06 06:01:11;;;;;;;0.57;0.57;;;;;;;10.07;34.07;100400.72;4907625;29;20075;-84
2022/05/06 06:03:39;;;;;;;0.70;0.70;;;;;;;10.22;33.26;100397.81;4907279;29;20130;-84
2022/05/06 06:06:08;;;;;;;0.60;0.60;;;;;;;10.33;33.60;100399.09;4911010;29;20124;-83
2022/05/06 06:08:36;;;;;;;0.60;0.60;;;;;;;10.53;33.26;100396.38;4909305;29;20058;-83
2022/05/06 06:11:06;;;;;;;0.60;0.60;;;;;;;10.87;32.84;100397.97;4910096;29;20413;-84
2022/05/06 06:13:37;;;;;;;0.60;0.60;;;;;;;11.02;32.38;100397.72;4911651;29;20051;-83
2022/05/06 06:16:07;;;;;;;0.60;0.60;;;;;;;11.03;32.24;100402.06;4918157;29;20086;-83
2022/05/06 06:18:35;;;;;;;0.60;0.60;;;;;;;11.06;31.83;100399.78;4892613;29;20060;-83
2022/05/06 06:21:02;;;;;;;0.50;0.50;;;;;;;11.06;31.92;100405.19;4908420;29;20074;-83
2022/05/06 06:23:31;;;;;;;0.60;0.60;;;;;;;11.09;32.34;100386.84;4888094;29;20052;-83
2022/05/06 06:26:00;;;;;;;0.60;0.60;;;;;;;11.42;32.08;100390.25;4910586;29;20072;-84
2022/05/06 06:28:28;;;;;;;0.60;0.60;;;;;;;11.51;31.76;100396.22;4908431;29;20044;-83
2022/05/06 06:30:56;;;;;;;0.50;0.50;;;;;;;11.78;31.42;100394.19;4910500;29;20518;-84
2022/05/06 06:33:24;;;;;;;0.60;0.60;;;;;;;11.84;31.05;100373.53;4910098;29;20052;-84
2022/05/06 06:35:51;;;;;;;0.60;0.60;;;;;;;11.88;31.05;100391.03;4924537;29;20066;-83
2022/05/06 06:38:18;;;;;;;0.60;0.60;;;;;;;12.00;30.97;100391.13;4925515;29;20048;-83
2022/05/06 06:40:46;;;;;;;0.60;0.60;;;;;;;12.17;30.88;100369.78;4910638;29;20459;-83
2022/05/06 06:43:14;;;;;;;0.55;0.55;;;;;;;12.25;30.56;100378.44;4927654;29;20075;-83
2022/05/06 06:45:59;;;;;;;0.50;0.50;;;;;;;12.37;30.69;100392.06;4925924;29;20145;-84
2022/05/06 06:48:57;;;;;;;0.60;0.60;;;;;;;12.39;30.56;100381.84;4941507;29;20051;-83
2022/05/06 06:51:44;;;;;;;0.60;0.60;;;;;;;12.60;29.82;100382.50;4908921;29;20115;-85
2022/05/06 06:54:11;;;;;;;0.60;0.60;;;;;;;12.96;29.31;100382.50;4924740;29;20084;-83
2022/05/06 06:56:39;;;;;;;0.50;0.50;;;;;;;13.11;29.33;100395.66;4927500;29;20099;-83
2022/05/06 06:59:06;;;;;;;0.60;0.60;;;;;;;13.13;28.98;100380.00;4936399;29;20079;-83
2022/05/06 07:01:33;;;;;;;0.50;0.50;;;;;;;13.29;29.35;100369.59;4919761;29;20058;-83
2022/05/06 07:04:01;;;;;;;0.57;0.57;;;;;;;13.41;28.31;100376.72;4936427;29;20487;-85
2022/05/06 07:11:59;;;;;;;0.50;0.50;;;;;;;13.60;26.87;100379.41;4921745;29;20096;-84
2022/05/06 07:14:33;;;;;;;0.50;0.50;;;;;;;13.36;25.80;100359.50;4918461;29;20047;-84
2022/05/06 07:17:00;;;;;;;0.60;0.60;;;;;;;13.24;25.76;100354.00;4918163;29;20050;-87
2022/05/06 07:19:28;;;;;;;0.60;0.60;;;;;;;13.18;26.05;100373.91;4921918;29;20094;-86
2022/05/06 07:21:55;;;;;;;0.50;0.50;;;;;;;13.05;25.84;100352.38;4934778;29;20166;-84
2022/05/06 07:24:24;;;;;;;0.60;0.60;;;;;;;13.02;25.60;100375.34;4948509;29;20079;-85
2022/05/06 07:26:53;;;;;;;0.50;0.50;;;;;;;12.86;25.92;100390.31;4938420;29;20134;-87
2022/05/06 07:29:20;;;;;;;0.50;0.50;;;;;;;12.67;25.88;100350.75;4919718;29;20095;-84
2022/05/06 07:31:48;;;;;;;0.50;0.50;;;;;;;12.79;26.29;100352.47;4936086;29;20107;-84
2022/05/06 07:34:16;;;;;;;0.60;0.60;;;;;;;13.05;25.90;100363.22;4919685;29;20412;-86
2022/05/06 07:36:43;;;;;;;0.70;0.70;;;;;;;13.23;25.23;100338.78;4936929;29;20270;-85
2022/05/06 07:39:14;;;;;;;0.63;0.63;;;;;;;13.62;25.64;100348.28;4919163;29;20077;-86
2022/05/06 07:41:43;;;;;;;0.60;0.60;;;;;;;13.99;25.21;100337.25;4918746;29;20419;-85
2022/05/06 07:44:10;;;;;;;0.70;0.70;;;;;;;14.38;24.63;100334.91;4935826;29;20110;-85
2022/05/06 07:46:38;;;;;;;0.50;0.50;;;;;;;14.22;23.44;100333.72;4918961;29;20052;-85
2022/05/06 07:49:06;;;;;;;0.60;0.60;;;;;;;14.00;23.56;100357.91;4919281;29;20450;-85
2022/05/06 07:51:33;;;;;;;0.70;0.70;;;;;;;14.10;23.47;100349.16;4918973;29;20088;-86
2022/05/06 07:54:02;;;;;;;0.60;0.60;;;;;;;14.26;23.39;100339.53;4936134;29;20726;-86
2022/05/06 07:56:29;;;;;;;0.60;0.60;;;;;;;14.42;22.71;100327.09;4935726;29;20507;-86
2022/05/06 07:58:57;;;;;;;0.70;0.70;;;;;;;14.83;22.51;100341.59;4935750;29;20467;-86
2022/05/06 08:06:56;;;;;;;0.65;0.65;;;;;;;14.89;22.06;100319.72;4936129;29;20067;-84
2022/05/06 08:09:23;;;;;;;0.70;0.70;;;;;;;14.79;22.55;100319.53;4935792;29;20060;-86
2022/05/06 08:11:50;;;;;;;0.80;0.80;;;;;;;15.37;21.60;100347.59;4935489;29;20459;-83
2022/05/06 08:14:18;;;;;;;0.70;0.70;;;;;;;15.34;21.30;100343.44;4918524;29;20058;-85
2022/05/06 08:16:47;;;;;;;0.68;0.68;;;;;;;15.80;21.38;100330.69;4934864;29;20471;-85
2022/05/06 08:19:14;;;;;;;0.50;0.50;;;;;;;15.85;21.13;100348.16;4934961;29;20064;-85
2022/05/06 08:21:48;;;;;;;0.90;0.90;;;;;;;15.70;20.92;100324.22;4935883;29;20431;-86
2022/05/06 08:24:16;;;;;;;0.80;0.80;;;;;;;16.48;21.41;100333.34;4935123;29;20134;-86
2022/05/06 08:26:44;;;;;;;0.80;0.80;;;;;;;16.52;20.57;100320.06;4935330;29;20047;-86
2022/05/06 08:29:12;;;;;;;0.70;0.70;;;;;;;17.00;20.30;100311.13;4935540;29;20048;-86
2022/05/06 08:31:40;;;;;;;0.50;0.50;;;;;;;16.85;20.28;100317.22;4917962;29;20075;-85
2022/05/06 08:34:11;;;;;;;0.50;0.50;;;;;;;15.92;20.94;100321.59;4917617;29;20395;-85
2022/05/06 08:36:45;;;;;;;0.50;0.50;;;;;;;15.79;21.48;100331.75;4934162;29;20051;-86
2022/05/06 08:39:12;;;;;;;0.70;0.70;;;;;;;16.27;20.69;100321.31;4933910;29;20142;-86
2022/05/06 08:41:41;;;;;;;0.70;0.70;;;;;;;16.58;20.77;100328.03;4918221;29;20047;-85
2022/05/06 08:52:45;;;;;;;0.50;0.50;;;;;;;14.76;21.64;100324.59;4907559;29;20414;-85
2022/05/06 08:55:12;;;;;;;0.70;0.70;;;;;;;14.83;21.87;100322.56;4935003;29;20498;-85
2022/05/06 08:57:40;;;;;;;0.60;0.60;;;;;;;14.86;21.99;100322.09;4936347;29;20280;-86
2022/05/06 09:00:09;;;;;;;0.60;0.60;;;;;;;14.89;22.24;100308.03;4937058;29;20122;-84
2022/05/06 09:02:40;;;;;;;0.50;0.50;;;;;;;16.07;21.04;100323.75;4935894;29;20649;-86
2022/05/06 09:05:15;;;;;;;0.50;0.50;;;;;;;15.30;21.52;100322.41;4917553;29;20051;-86
2022/05/06 09:07:55;;;;;;;0.50;0.50;;;;;;;15.08;21.81;100323.09;4917142;29;20048;-86
2022/05/06 09:10:23;;;;;;;0.50;0.50;;;;;;;15.58;21.84;100316.94;4917531;29;20075;-85
2022/05/06 09:12:56;;;;;;;0.60;0.60;;;;;;;15.96;21.20;100311.88;4918012;29;20056;-86
2022/05/06 09:18:10;;;;;;;0.50;0.50;;;;;;;15.70;21.11;100316.06;4934449;29;20064;-86
2022/05/06 09:20:41;;;;;;;0.50;0.50;;;;;;;15.14;21.70;100304.97;4933635;29;20142;-86
2022/05/06 09:23:26;;;;;;;0.50;0.50;;;;;;;15.36;21.88;100321.44;4933895;29;20052;-84
2022/05/06 09:25:53;;;;;;;0.52;0.52;;;;;;;15.52;22.04;100312.50;4917863;29;20051;-85
2022/05/06 09:28:21;;;;;;;0.50;0.50;;;;;;;15.91;21.86;100307.19;4934269;29;20070;-85
2022/05/06 09:31:01;;;;;;;0.50;0.50;;;;;;;16.93;20.71;100310.50;4934280;29;20428;-84
2022/05/06 09:33:29;;;;;;;0.50;0.50;;;;;;;16.01;20.67;100293.72;4900925;29;20075;-86
2022/05/06 09:35:57;;;;;;;0.50;0.50;;;;;;;15.72;21.11;100320.22;4933872;29;20056;-86
2022/05/06 09:38:29;;;;;;;0.40;0.40;;;;;;;15.65;21.64;100314.06;4933839;29;20039;-86
2022/05/06 09:40:57;;;;;;;1.00;1.00;;;;;;;16.31;20.78;100325.22;4916884;29;20514;-85
2022/05/06 09:43:26;;;;;;;0.60;0.60;;;;;;;16.84;20.29;100329.22;4917461;29;20075;-84
2022/05/06 09:45:53;;;;;;;0.50;0.50;;;;;;;16.37;21.06;100321.47;4933914;29;20434;-86
2022/05/06 09:48:20;;;;;;;0.50;0.50;;;;;;;16.11;21.01;100306.66;4917077;29;20084;-86
2022/05/06 09:50:48;;;;;;;0.50;0.50;;;;;;;15.74;21.61;100292.72;4933418;29;20083;-85
2022/05/06 09:53:22;;;;;;;;;;;;;;;16.19;21.26;100327.22;4934579;29;20142;-86
2022/05/06 09:55:49;;;;;;;0.45;0.45;;;;;;;16.58;20.83;100287.16;4933878;29;19927;-86
2022/05/06 09:58:17;;;;;;;0.50;0.50;;;;;;;16.11;20.99;100301.22;4933908;29;20044;-86
2022/05/06 10:00:44;;;;;;;0.52;0.52;;;;;;;15.65;21.58;100307.78;4933629;29;20052;-86
2022/05/06 10:03:12;;;;;;;0.50;0.50;;;;;;;15.70;21.74;100295.13;4916925;29;20071;-85
2022/05/06 10:05:39;;;;;;;0.50;0.50;;;;;;;15.50;21.78;100306.47;4901658;29;20043;-85
2022/05/06 10:08:14;;;;;;;0.50;0.50;;;;;;;15.43;21.83;100303.06;4936909;29;20055;-87
2022/05/06 10:10:47;;;;;;;1.00;1.00;;;;;;;17.37;20.20;100299.53;4916904;29;20535;-86
2022/05/06 10:13:22;;;;;;;1.00;1.00;;;;;;;18.95;18.65;100271.63;4916566;29;20052;-87
2022/05/06 10:15:51;;;;;;;0.95;0.95;;;;;;;20.17;17.63;100272.81;4900515;29;20058;-87
2022/05/06 10:18:45;;;;;;;0.90;0.90;;;;;;;21.42;16.58;100287.38;4933939;29;20047;-84
2022/05/06 10:21:13;;;;;;;0.40;0.40;;;;;;;20.03;17.84;100294.50;4913431;29;20052;-85
2022/05/06 10:23:54;;;;;;;0.30;0.30;;;;;;;18.71;18.51;100279.44;4933470;29;20048;-85
2022/05/06 10:26:34;;;;;;;0.50;0.50;;;;;;;17.89;19.26;100281.72;4933558;29;20142;-85
2022/05/06 10:34:55;;;;;;;0.50;0.50;;;;;;;18.27;19.29;100279.78;4925632;29;20545;-85
2022/05/06 10:37:28;;;;;;;0.65;0.65;;;;;;;18.34;19.03;100283.09;4921173;29;20068;-88
2022/05/06 10:39:55;;;;;;;0.80;0.80;;;;;;;19.53;18.02;100268.72;4933022;29;20062;-88
2022/05/06 10:42:36;;;;;;;0.88;0.88;;;;;;;20.16;17.84;100261.03;4916995;29;20510;-87
2022/05/06 10:45:24;;;;;;;0.85;0.85;;;;;;;20.84;17.28;100281.66;4933533;29;20047;-86
2022/05/06 10:47:51;;;;;;;0.90;0.90;;;;;;;20.32;16.79;100270.84;4933245;29;20052;-87
2022/05/06 10:50:21;;;;;;;0.88;0.88;;;;;;;20.61;17.12;100270.25;4934102;29;20070;-87
2022/05/06 10:53:01;;;;;;;0.90;0.90;;;;;;;20.47;17.02;100249.97;4939608;29;20055;-85
2022/05/06 10:55:28;;;;;;;0.77;0.77;;;;;;;21.25;16.40;100271.28;4941017;29;20075;-85
2022/05/06 10:57:58;;;;;;;0.70;0.70;;;;;;;21.17;16.64;100275.44;4935183;29;20062;-85
2022/05/06 11:00:27;;;;;;;0.50;0.50;;;;;;;18.72;18.13;100275.63;4928501;29;20418;-86
2022/05/06 11:02:58;;;;;;;0.32;0.32;;;;;;;18.45;18.59;100253.91;4937005;29;20087;-86
2022/05/06 11:05:29;;;;;;;0.70;0.70;;;;;;;18.06;19.13;100238.69;4920121;29;20138;-86
2022/05/06 11:07:59;;;;;;;0.40;0.40;;;;;;;18.35;18.79;100254.69;4920728;29;20059;-85
2022/05/06 11:10:30;;;;;;;0.40;0.40;;;;;;;18.01;19.31;100270.63;4936810;29;20055;-87
2022/05/06 11:13:18;;;;;;;0.40;0.40;;;;;;;17.41;20.02;100215.25;4918912;29;20506;-86
2022/05/06 11:15:45;;;;;;;0.50;0.50;;;;;;;17.43;19.64;100264.94;4918985;29;20134;-85
2022/05/06 11:18:12;;;;;;;0.60;0.60;;;;;;;18.46;19.14;100228.22;4936674;29;20047;-86
2022/05/06 11:20:40;;;;;;;0.90;0.90;;;;;;;19.72;18.16;100252.59;4904129;29;20075;-86
2022/05/06 11:23:13;;;;;;;0.60;0.60;;;;;;;19.46;18.39;100239.69;4919959;29;20051;-85
2022/05/06 11:25:45;;;;;;;0.90;0.90;;;;;;;21.03;17.21;100246.16;4936735;29;20052;-87
2022/05/06 11:28:17;;;;;;;0.40;0.40;;;;;;;21.12;16.69;100234.31;4936144;29;20530;-86
2022/05/06 11:30:46;;;;;;;0.70;0.70;;;;;;;19.79;17.62;100237.53;4918696;29;20056;-85
2022/05/06 11:33:31;;;;;;;0.90;0.90;;;;;;;21.51;16.66;100236.22;4936157;29;20075;-87
2022/05/06 11:36:05;;;;;;;0.80;0.80;;;;;;;22.63;15.63;100238.94;4935868;29;20063;-86
2022/05/06 11:38:42;;;;;;;0.80;0.80;;;;;;;22.96;15.24;100236.28;4919291;29;20566;-87
2022/05/06 11:41:12;;;;;;;0.40;0.40;;;;;;;22.07;15.90;100219.19;4936171;29;20056;-88
2022/05/06 11:43:40;;;;;;;0.40;0.40;;;;;;;21.05;16.51;100228.31;4935684;29;20232;-86
2022/05/06 11:49:03;;;;;;;0.80;0.80;;;;;;;21.12;16.50;100236.22;4935864;29;20054;-86
2022/05/06 11:51:43;;;;;;;0.30;0.30;;;;;;;19.63;17.67;100241.34;4936098;29;20075;-86
2022/05/06 11:54:14;;;;;;;0.30;0.30;;;;;;;17.50;19.03;100205.50;4936455;29;20075;-85
2022/05/06 11:56:41;;;;;;;0.80;0.80;;;;;;;17.59;19.33;100211.28;4920169;29;20056;-85
2022/05/06 11:59:09;;;;;;;0.90;0.90;;;;;;;18.18;18.75;100208.44;4919470;29;20063;-85
2022/05/06 12:01:38;;;;;;;0.90;0.90;;;;;;;20.22;17.01;100220.72;4934907;29;20400;-85
2022/05/06 12:04:10;;;;;;;0.90;0.90;;;;;;;21.33;16.44;100217.69;4935088;29;20048;-86
2022/05/06 12:06:47;;;;;;;0.90;0.90;;;;;;;22.63;15.63;100214.97;4935122;29;20067;-85
2022/05/06 12:09:21;;;;;;;1.00;1.00;;;;;;;22.55;15.28;100232.16;4918105;29;20479;-84
2022/05/06 12:12:10;;;;;;;0.90;0.90;;;;;;;21.80;15.69;100191.47;4934869;29;20111;-86
2022/05/06 12:14:38;;;;;;;0.70;0.70;;;;;;;20.16;17.02;100200.75;4935186;29;20058;-85
2022/05/06 12:17:10;;;;;;;0.65;0.65;;;;;;;20.55;16.79;100186.34;4918580;29;20056;-87
2022/05/06 12:19:43;;;;;;;0.30;0.30;;;;;;;19.57;17.36;100204.09;4935523;29;20055;-85
2022/05/06 12:22:12;;;;;;;0.30;0.30;;;;;;;18.64;18.44;100184.00;4934967;29;20055;-86
2022/05/06 12:24:48;;;;;;;1.00;1.00;;;;;;;19.27;18.28;100175.66;4934818;29;20050;-85